Terminal Aerodrome Forecast
Issued by NWS

Home | Current Version | Previous Version | Text Only | Print | Product List | Glossary On
Versions: 1 2 3 4 5 6 7 8 9 10 11 12 13 14 15 16 17 18 19
820
FTUS43 KGRR 191140
TAFMKG
TAF
KMKG 191140Z 1912/2012 10006KT P6SM VCSH BKN015 BKN100
     FM191600 07007KT P6SM VCSH BKN080
     FM200000 VRB03KT 6SM BR BKN250
     FM200900 11003KT 1 1/2SM BR BKN007=

USA.gov is the U.S. government's official web portal to all federal, state and local government web resources and services.